createdAt,value
2019-04-05T00:01:56.010Z,11.37
2019-04-05T00:04:22.807Z,10.80
2019-04-05T00:06:49.517Z,8.47
2019-04-05T00:09:16.822Z,11.77
2019-04-05T00:11:43.429Z,8.57
2019-04-05T00:14:10.457Z,11.13
2019-04-05T00:16:37.212Z,9.30
2019-04-05T00:19:04.173Z,10.17
2019-04-05T00:21:31.063Z,8.67
2019-04-05T00:23:57.777Z,9.23
2019-04-05T00:26:24.577Z,9.20
2019-04-05T00:28:51.867Z,8.83
2019-04-05T00:31:19.218Z,9.17
2019-04-05T00:33:45.911Z,9.50
2019-04-05T00:36:12.717Z,9.20
2019-04-05T00:38:40.622Z,9.23
2019-04-05T00:41:07.202Z,9.97
2019-04-05T00:43:34.098Z,10.65
2019-04-05T00:46:00.975Z,13.30
2019-04-05T00:48:27.814Z,9.70
2019-04-05T00:50:54.453Z,9.90
2019-04-05T00:53:21.384Z,10.93
2019-04-05T00:55:48.014Z,9.80
2019-04-05T00:58:14.593Z,9.63
2019-04-05T01:00:41.187Z,10.37
2019-04-05T01:03:07.798Z,8.93
2019-04-05T01:05:34.687Z,10.30
2019-04-05T01:08:01.323Z,9.93
2019-04-05T01:10:28.439Z,10.78
2019-04-05T01:12:55.060Z,9.50
2019-04-05T01:15:21.735Z,9.83
2019-04-05T01:17:48.325Z,11.17
2019-04-05T01:20:15.168Z,10.33
2019-04-05T01:22:41.820Z,9.80
2019-04-05T01:25:08.744Z,11.63
2019-04-05T01:27:39.597Z,10.83
2019-04-05T01:30:07.821Z,10.03
2019-04-05T01:32:38.189Z,9.37
2019-04-05T01:35:04.791Z,12.00
2019-04-05T01:37:34.160Z,10.48
2019-04-05T01:40:03.856Z,11.23
2019-04-05T01:42:37.008Z,10.55
2019-04-05T01:45:06.041Z,8.27
2019-04-05T01:47:37.047Z,8.80
2019-04-05T01:50:07.359Z,9.43
2019-04-05T01:52:34.753Z,11.23
2019-04-05T01:55:06.166Z,8.97
2019-04-05T01:57:34.058Z,8.73
2019-04-05T02:00:00.880Z,9.90
2019-04-05T02:02:28.972Z,9.43
2019-04-05T02:04:58.765Z,11.40
2019-04-05T02:07:25.939Z,9.67
2019-04-05T02:09:52.545Z,8.97
2019-04-05T02:12:19.376Z,9.13
2019-04-05T02:14:51.196Z,13.07
2019-04-05T02:17:22.635Z,9.03
2019-04-05T02:19:51.540Z,10.27
2019-04-05T02:22:18.551Z,10.57
2019-04-05T02:24:46.179Z,9.03
2019-04-05T02:27:15.777Z,9.47
2019-04-05T02:29:45.430Z,10.57
2019-04-05T02:32:13.033Z,10.10
2019-04-05T02:34:44.800Z,9.60
2019-04-05T02:37:17.851Z,10.17
2019-04-05T02:39:47.241Z,10.73
2019-04-05T02:42:14.638Z,10.23
2019-04-05T02:44:41.869Z,10.72
2019-04-05T02:47:09.506Z,9.37
2019-04-05T02:49:40.702Z,11.73
2019-04-05T02:52:10.093Z,10.47
2019-04-05T02:54:39.714Z,12.03
2019-04-05T02:57:10.230Z,10.27
2019-04-05T02:59:38.028Z,13.80
2019-04-05T03:02:05.676Z,10.40
2019-04-05T03:04:33.527Z,12.65
2019-04-05T03:07:03.223Z,10.20
2019-04-05T03:09:30.807Z,9.57
2019-04-05T03:12:00.605Z,10.67
2019-04-05T03:14:29.325Z,13.83
2019-04-05T03:16:56.904Z,11.70
2019-04-05T03:19:28.100Z,11.40
2019-04-05T03:21:56.605Z,9.53
2019-04-05T03:27:09.189Z,11.40
2019-04-05T03:29:36.244Z,9.75
2019-04-05T03:32:02.872Z,11.80
2019-04-05T03:34:29.654Z,12.50
2019-04-05T03:36:56.259Z,11.27
2019-04-05T03:39:23.168Z,10.87
2019-04-05T03:41:50.059Z,12.17
2019-04-05T03:44:16.703Z,11.60
2019-04-05T03:46:56.158Z,12.20
2019-04-05T03:49:11.678Z,11.70
2019-04-05T03:51:38.643Z,12.20
2019-04-05T03:54:05.441Z,11.37
2019-04-05T03:56:33.321Z,12.25
2019-04-05T03:59:00.006Z,13.10
2019-04-05T04:01:26.626Z,11.80
2019-04-05T04:03:53.340Z,10.77
2019-04-05T04:06:20.171Z,12.97
2019-04-05T04:08:47.004Z,13.43
2019-04-05T04:11:14.367Z,12.40
2019-04-05T04:13:41.328Z,11.38
2019-04-05T04:16:07.924Z,11.60
2019-04-05T04:18:34.991Z,10.45
2019-04-05T04:21:01.574Z,10.47
2019-04-05T04:23:28.262Z,12.47
2019-04-05T04:25:54.958Z,11.50
2019-04-05T04:28:21.837Z,12.47
2019-04-05T04:30:48.820Z,12.47
2019-04-05T04:33:15.458Z,11.63
2019-04-05T04:35:42.331Z,12.73
2019-04-05T04:38:09.155Z,13.43
2019-04-05T04:40:35.785Z,12.55
2019-04-05T04:43:02.401Z,12.90
2019-04-05T04:45:30.393Z,13.32
2019-04-05T04:50:30.545Z,11.27
2019-04-05T04:52:57.402Z,13.30
2019-04-05T04:55:24.975Z,12.23
2019-04-05T04:57:51.919Z,12.13
2019-04-05T05:00:18.721Z,11.03
2019-04-05T05:02:45.331Z,14.05
2019-04-05T05:05:11.919Z,16.87
2019-04-05T05:07:38.787Z,13.43
2019-04-05T05:10:05.414Z,16.57
2019-04-05T05:12:32.269Z,13.13
2019-04-05T05:14:58.991Z,12.40
2019-04-05T05:17:37.421Z,13.00
2019-04-05T05:19:53.900Z,17.67
2019-04-05T05:22:20.738Z,20.87
2019-04-05T05:27:19.098Z,14.47
2019-04-05T05:29:45.985Z,11.70
2019-04-05T05:32:12.583Z,15.90
2019-04-05T05:34:39.272Z,14.73
2019-04-05T05:37:06.080Z,15.10
2019-04-05T05:39:33.026Z,11.80
2019-04-05T05:41:59.616Z,14.73
2019-04-05T05:44:26.203Z,11.67
2019-04-05T05:46:53.539Z,14.63
2019-04-05T05:49:21.457Z,14.13
2019-04-05T05:51:49.453Z,10.77
2019-04-05T05:54:16.896Z,11.60
2019-04-05T05:56:43.683Z,11.80
2019-04-05T05:59:11.383Z,14.03
2019-04-05T06:01:38.079Z,13.07
2019-04-05T06:04:05.763Z,14.23
2019-04-05T06:06:33.374Z,13.87
2019-04-05T06:09:00.972Z,14.67
2019-04-05T06:11:27.598Z,11.53
2019-04-05T06:13:54.407Z,11.45
2019-04-05T06:16:21.014Z,12.30
2019-04-05T06:18:48.687Z,8.97
2019-04-05T06:21:15.376Z,9.77
2019-04-05T06:23:42.303Z,8.23
2019-04-05T06:26:16.751Z,7.80
2019-04-05T06:28:43.459Z,9.33
2019-04-05T06:31:10.112Z,8.03
2019-04-05T06:33:36.849Z,8.17
2019-04-05T06:36:03.645Z,8.23
2019-04-05T06:38:30.254Z,8.63
2019-04-05T06:40:56.896Z,9.20
2019-04-05T06:43:23.526Z,9.53
2019-04-05T06:45:50.604Z,9.63
2019-04-05T06:48:19.512Z,10.57
2019-04-05T06:50:47.255Z,10.32
2019-04-05T06:53:13.892Z,7.63
2019-04-05T06:55:41.754Z,10.37
2019-04-05T06:58:10.347Z,7.97
2019-04-05T07:00:36.836Z,9.20
2019-04-05T07:03:04.004Z,9.20
2019-04-05T07:05:30.731Z,7.50
2019-04-05T07:07:57.642Z,8.60
2019-04-05T07:10:24.229Z,7.67
2019-04-05T07:12:50.861Z,8.27
2019-04-05T07:15:17.619Z,10.77
2019-04-05T07:17:44.489Z,10.53
2019-04-05T07:20:11.090Z,8.10
2019-04-05T07:22:39.522Z,9.23
2019-04-05T07:27:53.238Z,9.08
2019-04-05T07:30:20.886Z,10.00
2019-04-05T07:32:47.681Z,10.87
2019-04-05T07:35:15.236Z,9.37
2019-04-05T07:37:42.924Z,9.13
2019-04-05T07:40:10.561Z,10.37
2019-04-05T07:42:37.669Z,9.90
2019-04-05T07:45:04.611Z,11.70
2019-04-05T07:47:32.618Z,10.10
2019-04-05T07:49:59.696Z,9.70
2019-04-05T07:52:27.916Z,12.67
2019-04-05T07:54:54.790Z,14.83
2019-04-05T07:57:21.841Z,14.43
2019-04-05T07:59:48.465Z,16.83
2019-04-05T08:02:16.169Z,17.93
2019-04-05T08:04:42.973Z,12.70
2019-04-05T08:07:10.675Z,9.77
2019-04-05T08:09:38.326Z,10.37
2019-04-05T08:12:05.469Z,11.93
2019-04-05T08:14:33.085Z,14.00
2019-04-05T08:16:59.789Z,10.63
2019-04-05T08:21:59.099Z,12.37
2019-04-05T08:24:27.192Z,11.93
2019-04-05T08:26:54.321Z,11.83
2019-04-05T08:29:24.979Z,12.03
2019-04-05T08:31:53.321Z,12.32
2019-04-05T08:34:20.643Z,10.73
2019-04-05T08:36:48.629Z,11.20
2019-04-05T08:39:16.268Z,10.57
2019-04-05T08:41:44.163Z,11.48
2019-04-05T08:44:31.399Z,11.03
2019-04-05T08:46:58.551Z,11.37
2019-04-05T08:49:26.172Z,14.33
2019-04-05T08:51:53.380Z,12.40
2019-04-05T08:54:32.040Z,10.77
2019-04-05T08:56:49.380Z,12.57
2019-04-05T08:59:17.106Z,10.87
2019-04-05T09:01:44.339Z,11.77
2019-04-05T09:04:11.446Z,11.12
2019-04-05T09:06:39.222Z,10.93
2019-04-05T09:09:07.110Z,11.53
2019-04-05T09:11:35.229Z,12.30
2019-04-05T09:14:03.154Z,13.40
2019-04-05T09:16:29.865Z,13.07
2019-04-05T09:18:57.565Z,12.90
2019-04-05T09:21:24.292Z,15.30
2019-04-05T09:23:59.304Z,13.97
2019-04-05T09:26:26.647Z,13.00
2019-04-05T09:28:57.303Z,12.50
2019-04-05T09:31:25.343Z,12.73
2019-04-05T09:34:11.784Z,13.50
2019-04-05T09:36:38.787Z,13.27
2019-04-05T09:39:14.961Z,13.90
2019-04-05T09:41:39.464Z,13.67
2019-04-05T09:44:10.689Z,13.87
2019-04-05T09:46:46.912Z,12.10
2019-04-05T09:49:07.729Z,12.47
2019-04-05T09:51:42.845Z,16.40
2019-04-05T09:57:11.291Z,13.83
2019-04-05T09:59:42.807Z,14.57
2019-04-05T10:02:12.109Z,12.70
2019-04-05T10:04:40.510Z,12.80
2019-04-05T10:07:12.424Z,13.75
2019-04-05T10:09:43.734Z,13.40
2019-04-05T10:12:11.431Z,13.93
2019-04-05T10:14:42.884Z,14.17
2019-04-05T10:17:12.921Z,14.13
2019-04-05T10:19:49.802Z,15.07
2019-04-05T10:22:09.775Z,14.10
2019-04-05T10:24:40.333Z,16.10
2019-04-05T10:27:10.009Z,15.15
2019-04-05T10:29:41.024Z,14.47
2019-04-05T10:32:10.333Z,15.98
2019-04-05T10:34:39.990Z,15.93
2019-04-05T10:37:07.848Z,16.67
2019-04-05T10:39:47.277Z,19.57
2019-04-05T10:42:18.625Z,19.77
2019-04-05T10:44:56.143Z,17.73
2019-04-05T10:47:25.561Z,19.03
2019-04-05T10:50:03.072Z,18.50
2019-04-05T10:52:25.289Z,20.92
2019-04-05T10:54:53.626Z,19.47
2019-04-05T10:57:24.255Z,19.33
2019-04-05T10:59:51.734Z,18.83
2019-04-05T11:02:19.341Z,20.60
2019-04-05T11:04:47.163Z,21.63
2019-04-05T11:07:16.716Z,18.82
2019-04-05T11:09:44.367Z,24.57
2019-04-05T11:12:16.185Z,23.68
2019-04-05T11:14:50.749Z,20.87
2019-04-05T11:17:17.168Z,22.10
2019-04-05T11:19:50.217Z,21.30
2019-04-05T11:22:20.953Z,24.30
2019-04-05T11:27:33.808Z,21.30
2019-04-05T11:30:01.571Z,21.00
2019-04-05T11:32:29.234Z,21.60
2019-04-05T11:34:56.257Z,21.60
2019-04-05T11:37:22.991Z,21.40
2019-04-05T11:39:51.561Z,22.60
2019-04-05T11:42:19.394Z,23.38
2019-04-05T11:44:47.031Z,20.53
2019-04-05T11:47:13.637Z,23.80
2019-04-05T11:49:40.738Z,21.50
2019-04-05T11:52:07.685Z,24.10
2019-04-05T11:54:35.563Z,25.77
2019-04-05T11:57:03.359Z,20.50
2019-04-05T11:59:31.305Z,21.77
2019-04-05T12:01:58.920Z,21.67
2019-04-05T12:04:25.652Z,20.43
2019-04-05T12:06:52.609Z,19.57
2019-04-05T12:09:19.309Z,22.63
2019-04-05T12:11:46.437Z,20.47
2019-04-05T12:14:13.383Z,18.07
2019-04-05T12:16:39.967Z,19.33
2019-04-05T12:19:06.732Z,20.70
2019-04-05T12:21:34.797Z,19.50
2019-04-05T12:24:02.646Z,21.00
2019-04-05T12:26:30.085Z,20.17
2019-04-05T12:28:56.668Z,21.20
2019-04-05T12:31:23.387Z,20.23
2019-04-05T12:33:52.224Z,19.93
2019-04-05T12:36:22.024Z,20.97
2019-04-05T12:38:47.291Z,20.47
2019-04-05T12:41:14.369Z,25.77
2019-04-05T12:43:43.796Z,22.27
2019-04-05T12:46:10.120Z,21.80
2019-04-05T12:48:37.247Z,24.03
2019-04-05T12:51:05.429Z,22.93
2019-04-05T12:53:33.497Z,23.77
2019-04-05T12:56:01.454Z,25.00
2019-04-05T12:58:29.111Z,24.83
2019-04-05T13:00:57.048Z,21.50
2019-04-05T13:03:24.735Z,24.80
2019-04-05T13:05:52.343Z,24.60
2019-04-05T13:08:20.883Z,22.07
2019-04-05T13:10:48.827Z,23.10
2019-04-05T13:13:15.619Z,25.23
2019-04-05T13:15:43.492Z,24.90
2019-04-05T13:18:10.127Z,25.27
2019-04-05T13:20:38.532Z,23.53
2019-04-05T13:23:06.841Z,21.90
2019-04-05T13:25:35.666Z,22.73
2019-04-05T13:28:12.739Z,23.23
2019-04-05T13:30:30.575Z,27.73
2019-04-05T13:32:57.287Z,24.73
2019-04-05T13:35:24.171Z,25.27
2019-04-05T13:37:50.795Z,25.47
2019-04-05T13:40:17.718Z,23.25
2019-04-05T13:42:45.322Z,23.37
2019-04-05T13:45:12.192Z,22.90
2019-04-05T13:47:39.226Z,22.50
2019-04-05T13:50:10.869Z,23.17
2019-04-05T13:52:36.513Z,24.03
2019-04-05T13:55:03.283Z,24.33
2019-04-05T13:57:30.217Z,20.95
2019-04-05T13:59:56.783Z,24.60
2019-04-05T14:02:23.726Z,20.40
2019-04-05T14:04:53.470Z,19.53
2019-04-05T14:07:19.376Z,19.43
2019-04-05T14:09:45.957Z,21.30
2019-04-05T14:12:12.904Z,21.23
2019-04-05T14:14:41.526Z,17.90
2019-04-05T14:17:08.277Z,18.87
2019-04-05T14:19:35.089Z,19.97
2019-04-05T14:22:08.215Z,19.07
2019-04-05T14:24:30.899Z,22.00
2019-04-05T14:26:57.522Z,18.40
2019-04-05T14:29:24.138Z,17.85
2019-04-05T14:31:51.679Z,19.67
2019-04-05T14:34:18.292Z,20.17
2019-04-05T14:36:45.304Z,16.07
2019-04-05T14:39:12.054Z,19.27
2019-04-05T14:41:38.919Z,18.63
2019-04-05T14:44:06.645Z,19.47
2019-04-05T14:46:33.622Z,22.50
2019-04-05T14:49:01.357Z,19.30
2019-04-05T14:51:28.650Z,17.10
2019-04-05T14:53:56.534Z,15.73
2019-04-05T14:56:24.135Z,16.47
2019-04-05T14:58:50.727Z,17.87
2019-04-05T15:01:18.065Z,16.23
2019-04-05T15:03:45.963Z,16.15
2019-04-05T15:06:12.815Z,15.67
2019-04-05T15:08:40.039Z,17.00
2019-04-05T15:11:06.860Z,16.80
2019-04-05T15:13:34.150Z,15.85
2019-04-05T15:16:01.178Z,19.53
2019-04-05T15:18:27.803Z,14.07
2019-04-05T15:20:54.484Z,14.37
2019-04-05T15:23:21.095Z,12.57
2019-04-05T15:25:49.849Z,12.70
2019-04-05T15:28:16.148Z,10.40
2019-04-05T15:30:43.072Z,10.05
2019-04-05T15:33:09.847Z,9.10
2019-04-05T15:35:37.100Z,10.17
2019-04-05T15:40:48.458Z,6.97
2019-04-05T15:43:15.087Z,7.67
2019-04-05T15:45:42.821Z,7.57
2019-04-05T15:48:09.760Z,7.53
2019-04-05T15:50:36.571Z,7.47
2019-04-05T15:53:03.384Z,7.20
2019-04-05T15:55:33.412Z,7.80
2019-04-05T15:57:58.743Z,9.43
2019-04-05T16:00:26.417Z,9.63
2019-04-05T16:02:54.182Z,9.50
2019-04-05T16:05:21.211Z,9.73
2019-04-05T16:07:49.102Z,12.83
2019-04-05T16:10:16.981Z,13.13
2019-04-05T16:12:44.600Z,12.33
2019-04-05T16:15:12.211Z,9.83
2019-04-05T16:17:40.106Z,10.17
2019-04-05T16:20:07.445Z,8.60
2019-04-05T16:22:35.956Z,9.77
2019-04-05T16:25:03.842Z,8.70
2019-04-05T16:27:31.064Z,8.83
2019-04-05T16:29:58.671Z,8.67
2019-04-05T16:32:26.672Z,8.37
2019-04-05T16:34:53.965Z,9.23
2019-04-05T16:37:21.879Z,7.43
2019-04-05T16:39:48.990Z,9.40
2019-04-05T16:42:16.080Z,9.60
2019-04-05T16:44:43.010Z,9.33
2019-04-05T16:47:10.663Z,8.23
2019-04-05T16:49:37.488Z,9.47
2019-04-05T16:52:05.097Z,11.07
2019-04-05T16:54:31.689Z,9.60
2019-04-05T16:56:58.703Z,10.73
2019-04-05T16:59:26.656Z,11.93
2019-04-05T17:01:56.716Z,13.40
2019-04-05T17:04:22.805Z,10.57
2019-04-05T17:06:50.964Z,10.27
2019-04-05T17:09:18.887Z,11.80
2019-04-05T17:14:31.101Z,9.90
2019-04-05T17:16:58.642Z,10.17
2019-04-05T17:19:26.333Z,10.80
2019-04-05T17:21:57.255Z,10.30
2019-04-05T17:26:56.363Z,11.60
2019-04-05T17:29:23.107Z,12.27
2019-04-05T17:31:51.926Z,11.00
2019-04-05T17:34:19.373Z,9.50
2019-04-05T17:36:47.161Z,12.33
2019-04-05T17:39:20.179Z,12.80
2019-04-05T17:41:45.385Z,11.13
2019-04-05T17:44:29.887Z,10.08
2019-04-05T17:46:58.405Z,11.57
2019-04-05T17:49:26.149Z,14.17
2019-04-05T17:51:55.890Z,13.10
2019-04-05T17:54:30.864Z,12.40
2019-04-05T17:56:53.501Z,13.13
2019-04-05T17:59:21.826Z,15.13
2019-04-05T18:01:54.805Z,14.90
2019-04-05T18:04:21.554Z,12.28
2019-04-05T18:09:37.053Z,12.90
2019-04-05T18:12:11.601Z,15.20
2019-04-05T18:17:23.925Z,14.97
2019-04-05T18:19:51.534Z,15.03
2019-04-05T18:22:20.981Z,12.60
2019-04-05T18:24:51.130Z,16.60
2019-04-05T18:27:21.018Z,12.93
2019-04-05T18:29:50.078Z,14.57
2019-04-05T18:32:19.671Z,12.28
2019-04-05T18:34:47.524Z,12.37
2019-04-05T18:37:18.971Z,10.75
2019-04-05T18:39:46.188Z,12.23
2019-04-05T18:42:17.144Z,11.70
2019-04-05T18:44:48.450Z,12.13
2019-04-05T18:47:15.557Z,11.00
2019-04-05T18:49:43.160Z,13.63
2019-04-05T18:52:11.021Z,12.53
2019-04-05T18:54:39.403Z,12.10
2019-04-05T18:57:07.219Z,11.10
2019-04-05T18:59:35.103Z,11.83
2019-04-05T19:02:04.052Z,12.50
2019-04-05T19:04:35.112Z,14.67
2019-04-05T19:07:12.410Z,14.40
2019-04-05T19:09:40.026Z,14.53
2019-04-05T19:12:07.969Z,16.15
2019-04-05T19:14:35.625Z,11.93
2019-04-05T19:17:02.245Z,11.07
2019-04-05T19:19:29.908Z,12.57
2019-04-05T19:21:57.275Z,13.40
2019-04-05T19:26:56.447Z,13.50
2019-04-05T19:29:23.595Z,12.80
2019-04-05T19:49:35.884Z,7.53
2019-04-05T19:52:04.044Z,7.50
2019-04-05T19:54:32.424Z,6.50
2019-04-05T19:57:00.196Z,6.93
2019-04-05T19:59:27.419Z,6.37
2019-04-05T20:01:58.447Z,6.93
2019-04-05T20:04:23.404Z,7.33
2019-04-05T20:06:58.037Z,6.70
2019-04-05T20:09:18.643Z,6.53
2019-04-05T20:11:45.310Z,5.87
2019-04-05T20:14:12.335Z,6.17
2019-04-05T20:16:39.024Z,6.80
2019-04-05T20:19:05.684Z,5.47
2019-04-05T20:21:32.763Z,5.97
2019-04-05T20:23:59.380Z,6.43
2019-04-05T20:26:26.236Z,6.78
2019-04-05T20:28:52.862Z,5.93
2019-04-05T20:31:19.450Z,6.60
2019-04-05T20:33:46.049Z,6.90
2019-04-05T20:36:13.144Z,6.05
2019-04-05T20:38:39.770Z,5.20
2019-04-05T20:41:06.670Z,6.63
2019-04-05T20:43:33.298Z,6.70
2019-04-05T20:46:01.605Z,6.03
2019-04-05T20:48:28.459Z,6.03
2019-04-05T20:50:55.365Z,6.87
2019-04-05T20:53:22.234Z,7.33
2019-04-05T20:55:48.869Z,6.40
2019-04-05T20:58:15.770Z,5.67
2019-04-05T21:00:42.699Z,5.40
2019-04-05T21:03:10.973Z,6.20
2019-04-05T21:05:37.637Z,5.03
2019-04-05T21:08:04.235Z,5.40
2019-04-05T21:10:30.881Z,4.67
2019-04-05T21:12:57.983Z,6.73
2019-04-05T21:15:24.673Z,4.90
2019-04-05T21:17:51.373Z,4.60
2019-04-05T21:20:19.351Z,4.28
2019-04-05T21:22:49.007Z,4.10
2019-04-05T21:28:00.981Z,4.13
2019-04-05T21:30:27.907Z,4.53
2019-04-05T21:32:54.525Z,3.93
2019-04-05T21:35:21.141Z,4.00
2019-04-05T21:37:47.702Z,4.70
2019-04-05T21:40:14.590Z,5.07
2019-04-05T21:42:41.193Z,4.53
2019-04-05T21:45:07.818Z,4.83
2019-04-05T21:47:34.381Z,4.87
2019-04-05T21:50:01.214Z,4.23
2019-04-05T21:52:27.935Z,4.63
2019-04-05T21:54:54.533Z,3.87
2019-04-05T21:57:21.410Z,4.80
2019-04-05T21:59:48.008Z,5.07
2019-04-05T22:02:14.590Z,5.00
2019-04-05T22:04:41.582Z,5.60
2019-04-05T22:07:08.330Z,5.23
2019-04-05T22:09:34.943Z,4.60
2019-04-05T22:12:01.549Z,5.60
2019-04-05T22:14:28.382Z,5.13
2019-04-05T22:16:55.280Z,4.80
2019-04-05T22:19:21.988Z,4.77
2019-04-05T22:21:48.575Z,5.57
2019-04-05T22:24:15.823Z,5.20
2019-04-05T22:26:42.552Z,5.70
2019-04-05T22:29:09.464Z,5.43
2019-04-05T22:31:36.045Z,5.87
2019-04-05T22:34:02.950Z,5.87
2019-04-05T22:36:29.833Z,5.40
2019-04-05T22:38:56.502Z,5.57
2019-04-05T22:41:23.228Z,6.47
2019-04-05T22:43:50.058Z,4.90
2019-04-05T22:46:17.342Z,4.83
2019-04-05T22:48:43.943Z,5.67
2019-04-05T22:51:11.225Z,5.28
2019-04-05T22:53:37.984Z,5.43
2019-04-05T22:56:04.584Z,4.93
2019-04-05T22:58:31.296Z,5.60
2019-04-05T23:00:57.874Z,6.37
2019-04-05T23:03:25.032Z,5.67
2019-04-05T23:05:51.614Z,5.70
2019-04-05T23:08:18.200Z,5.53
2019-04-05T23:10:48.554Z,6.23
2019-04-05T23:13:15.147Z,6.77
2019-04-05T23:15:41.856Z,7.40
2019-04-05T23:18:08.942Z,9.40
2019-04-05T23:20:35.529Z,7.37
2019-04-05T23:23:02.430Z,6.15
2019-04-05T23:25:31.420Z,6.37
2019-04-05T23:27:58.015Z,6.07
2019-04-05T23:30:25.033Z,5.30
2019-04-05T23:32:51.976Z,6.23
2019-04-05T23:35:19.763Z,6.35
2019-04-05T23:37:46.612Z,7.17
2019-04-05T23:40:13.252Z,6.20
2019-04-05T23:42:40.216Z,5.27
2019-04-05T23:45:07.064Z,6.27
2019-04-05T23:47:34.077Z,4.80
2019-04-05T23:50:01.112Z,5.87
2019-04-05T23:52:28.058Z,5.20
2019-04-05T23:54:54.898Z,6.30
2019-04-05T23:57:21.762Z,6.07
2019-04-05T23:59:48.390Z,6.40
